Latest Weather Observations for Oenpelli Airport

IDD60801

Issued at 9:31 am CST Monday 6 February 2023 (issued every 10 minutes, with the page automatically refreshed every 10 minutes)

About weather observations | Map of weather stations | Latest weather observations for NT | Other Formats
Station Details ID: 014310 Name: OENPELLI AIRPORT Lat: -12.33 Lon: 133.01 Height: 7.5 m
Data from the previous 72 hours. | See also: Recent months at Oenpelli Airport
Date/Time
CST
Temp
°C
App
Temp
°C
Dew
Point
°C
Rel
Hum
%
Delta-T
°C
Wind Press
QNH
hPa
Press
MSL
hPa
Rain since
9am
mm
Dir  Spd
km/h
Gust
km/h
Spd
kts
Gust
kts
06/09:30am 29.1 34.2 24.7 77 3.1 SW 6 11 3 6 1008.4 1008.3 0.0
06/09:00am 28.6 33.1 23.9 75 3.3 SSW 7 9 4 5 1008.2 1008.1 0.2
06/08:30am 28.3 33.1 24.1 78 2.9 SSW 6 9 3 5 1007.9 1007.8 0.2
06/08:00am 27.1 32.4 24.4 85 1.9 SW 4 6 2 3 1007.6 1007.5 0.2
06/07:30am 26.2 32.2 24.2 89 1.4 CALM 0 0 0 0 1007.5 1007.4 0.2
06/07:00am 25.6 31.7 24.4 93 0.8 CALM 0 4 0 2 1007.1 1007.0 0.2
06/06:30am 25.6 31.8 24.6 94 0.7 CALM 0 4 0 2 1006.6 1006.5 0.2
06/06:00am 25.7 32.0 24.8 95 0.6 CALM 0 0 0 0 1006.2 1006.1 0.2
06/05:30am 25.7 32.0 24.7 94 0.7 CALM 0 0 0 0 1005.9 1005.8 0.2
06/05:00am 25.3 31.4 24.4 95 0.6 CALM 0 0 0 0 1005.7 1005.6 0.2
06/04:30am 25.4 31.5 24.4 94 0.7 CALM 0 0 0 0 1005.8 1005.7 0.2
06/04:00am 25.3 30.8 24.1 93 0.8 SSW 2 4 1 2 1005.8 1005.7 0.2
06/03:30am 25.3 31.1 23.9 92 1.0 CALM 0 0 0 0 1005.8 1005.7 0.2
06/03:00am 25.4 31.0 23.5 89 1.3 CALM 0 4 0 2 1005.8 1005.7 0.2
06/02:30am 25.3 29.7 23.4 89 1.3 SW 6 9 3 5 1005.9 1005.8 0.2
06/02:00am 25.6 30.1 24.0 91 1.1 SW 7 11 4 6 1006.2 1006.1 0.2
06/01:30am 25.8 31.4 24.2 91 1.1 WSW 2 4 1 2 1006.4 1006.3 0.2
06/01:00am 25.9 31.9 24.3 91 1.1 CALM 0 0 0 0 1006.6 1006.5 0.2
06/12:30am 26.0 31.1 24.0 89 1.4 SW 4 6 2 3 1007.0 1006.9 0.2
06/12:00am 26.2 31.7 24.6 91 1.1 WSW 4 7 2 4 1007.3 1007.2 0.2
 
Date/Time
CST
Temp
°C
App
Temp
°C
Dew
Point
°C
Rel
Hum
%
Delta-T
°C
Wind Press
QNH
hPa
Press
MSL
hPa
Rain since
9am
mm
Dir  Spd
km/h
Gust
km/h
Spd
kts
Gust
kts
05/11:30pm 26.6 31.5 24.4 88 1.5 W 6 7 3 4 1007.2 1007.1 0.2
05/11:00pm 26.8 31.4 24.1 85 1.9 WSW 7 11 4 6 1007.3 1007.2 0.2
05/10:30pm 27.1 32.7 24.9 88 1.5 WSW 4 6 2 3 1007.2 1007.1 0.2
05/10:00pm 27.0 32.8 24.6 87 1.7 SW 2 4 1 2 1006.9 1006.8 0.2
05/09:30pm 27.2 32.3 24.7 86 1.7 W 6 11 3 6 1006.5 1006.4 0.2
05/09:00pm 27.3 32.4 24.9 87 1.7 WNW 7 13 4 7 1006.2 1006.1 0.2
05/08:30pm 27.2 32.1 24.7 86 1.7 WNW 7 11 4 6 1006.1 1006.0 0.2
05/08:00pm 27.4 32.2 24.5 84 2.0 WNW 7 11 4 6 1005.7 1005.6 0.2
05/07:30pm 27.8 31.8 24.4 82 2.4 WNW 11 17 6 9 1005.2 1005.1 0.2
05/07:00pm 28.8 33.5 25.0 80 2.7 NNW 9 13 5 7 1004.8 1004.7 0.2
05/06:30pm 29.6 35.0 25.4 78 3.0 NNW 7 11 4 6 1004.4 1004.3 0.2
05/06:00pm 29.4 35.2 26.0 82 2.4 N 7 11 4 6 1003.9 1003.8 0.2
05/05:30pm 30.7 35.9 24.8 71 4.2 NW 6 9 3 5 1003.5 1003.4 0.2
05/05:00pm 31.7 36.7 23.8 63 5.5 NNW 4 4 2 2 1003.1 1003.0 0.2
05/04:30pm 31.5 35.7 22.5 59 6.2 NNW 4 6 2 3 1002.8 1002.7 0.2
05/04:00pm 31.0 35.2 23.4 64 5.2 WNW 7 9 4 5 1003.3 1003.2 0.2
05/03:30pm 30.7 35.1 23.4 65 5.0 N 6 7 3 4 1003.5 1003.4 0.2
05/03:00pm 30.3 34.0 22.2 62 5.5 N 6 9 3 5 1003.8 1003.7 0.2
05/02:30pm 30.4 34.3 21.8 60 5.8 S 4 9 2 5 1004.0 1003.9 0.2
05/02:00pm 29.6 31.5 23.5 69 4.2 E 19 26 10 14 1004.2 1004.1 0.2
05/01:30pm 32.5 35.4 23.2 58 6.4 NE 13 19 7 10 1004.3 1004.2 0.2
05/01:00pm 32.3 36.5 24.1 62 5.7 NNE 9 17 5 9 1004.7 1004.6 0.2
05/12:30pm 31.7 36.5 25.1 68 4.7 NNE 9 17 5 9 1005.0 1004.9 0.2
05/12:00pm 30.9 34.9 23.8 66 4.9 NNE 9 13 5 7 1005.3 1005.2 0.2
05/11:30am 30.8 36.2 25.4 73 3.8 NE 7 13 4 7 1005.8 1005.7 0.2
05/11:00am 30.3 34.6 24.9 73 3.8 NNE 11 15 6 8 1006.3 1006.2 0.2
05/10:30am 29.9 34.3 24.5 73 3.8 ENE 9 15 5 8 1006.5 1006.4 0.2
05/10:00am 29.4 33.7 24.3 74 3.5 ENE 9 13 5 7 1006.7 1006.6 0.2
05/09:30am 28.8 32.4 23.7 74 3.5 ENE 11 15 6 8 1006.9 1006.8 0.2
05/09:00am 28.1 32.3 23.5 76 3.2 E 7 9 4 5 1006.7 1006.6 48.8
05/08:30am 27.4 32.1 23.4 79 2.7 E 4 6 2 3 1006.5 1006.4 48.8
05/08:00am 26.6 31.4 23.5 83 2.1 E 4 6 2 3 1006.2 1006.1 48.8
05/07:30am 25.8 31.2 23.3 86 1.7 CALM 0 0 0 0 1006.4 1006.3 48.8
05/07:00am 25.6 31.0 23.3 87 1.6 CALM 0 4 0 2 1006.1 1006.0 48.8
05/06:30am 25.6 30.7 23.3 87 1.6 NNE 2 6 1 3 1005.7 1005.6 48.8
05/06:00am 25.5 30.7 23.6 89 1.3 SE 2 4 1 2 1005.4 1005.3 48.8
05/05:30am 25.3 31.1 23.9 92 1.0 CALM 0 0 0 0 1005.0 1004.9 48.8
05/05:00am 25.2 29.9 23.3 89 1.3 ENE 4 6 2 3 1004.8 1004.7 48.8
05/04:30am 25.4 29.5 22.9 86 1.7 ESE 6 9 3 5 1005.0 1004.9 48.8
05/04:00am 25.1 29.8 23.3 90 1.2 SE 4 6 2 3 1004.9 1004.8 48.8
05/03:30am 25.0 29.9 23.6 92 1.0 SE 4 6 2 3 1004.9 1004.8 48.8
05/03:00am 25.0 29.7 23.4 91 1.1 ESE 4 7 2 4 1004.8 1004.7 48.8
05/02:30am 25.0 29.7 24.0 94 0.7 ESE 6 7 3 4 1005.0 1004.9 48.8
05/02:00am 24.9 30.3 23.9 94 0.7 ESE 2 4 1 2 1005.2 1005.1 48.8
05/01:30am 24.8 30.7 24.1 96 0.5 CALM 0 0 0 0 1005.5 1005.4 48.8
05/01:00am 24.8 30.3 24.1 96 0.5 ESE 2 4 1 2 1005.9 1005.8 48.8
05/12:30am 24.8 30.2 23.9 95 0.6 SSW 2 4 1 2 1006.2 1006.1 48.8
05/12:00am 24.6 29.5 23.7 95 0.6 SSW 4 4 2 2 1006.4 1006.3 48.8
 
Date/Time
CST
Temp
°C
App
Temp
°C
Dew
Point
°C
Rel
Hum
%
Delta-T
°C
Wind Press
QNH
hPa
Press
MSL
hPa
Rain since
9am
mm
Dir  Spd
km/h
Gust
km/h
Spd
kts
Gust
kts
04/11:30pm 24.4 30.0 23.5 95 0.6 CALM 0 4 0 2 1006.8 1006.7 48.8
04/11:00pm 24.2 29.8 23.5 96 0.5 CALM 0 0 0 0 1007.2 1007.1 48.8
04/10:30pm 24.2 28.3 23.3 95 0.6 ESE 7 13 4 7 1007.8 1007.7 48.8
04/10:00pm 24.2 28.3 23.3 95 0.6 E 7 11 4 6 1007.9 1007.8 48.8
04/09:30pm 24.4 28.6 23.5 95 0.6 NE 7 13 4 7 1008.0 1007.9 48.0
04/09:00pm 23.9 28.5 23.2 96 0.5 N 4 6 2 3 1007.9 1007.8 48.0
04/08:30pm 23.6 27.6 23.1 97 0.3 ESE 7 11 4 6 1007.7 1007.6 48.0
04/08:00pm 23.4 26.4 22.7 96 0.5 E 11 15 6 8 1007.4 1007.3 47.6
04/07:30pm 24.0 27.8 23.5 97 0.3 E 9 13 5 7 1007.0 1006.9 45.0
04/07:00pm 24.3 28.1 24.1 99 0.1 NE 11 20 6 11 1006.5 1006.4 40.6
04/06:30pm 24.6 27.8 24.4 99 0.1 NNE 15 24 8 13 1006.0 1005.9 21.6
04/06:00pm 24.9 26.9 24.0 95 0.6 NNE 20 30 11 16 1004.8 1004.7 1.0
04/05:30pm 27.7 31.7 23.7 79 2.8 S 9 17 5 9 1003.7 1003.6 0.0
04/05:00pm 27.9 30.7 23.7 78 2.9 S 15 26 8 14 1003.3 1003.2 0.0
04/04:30pm 29.9 35.6 25.9 79 2.8 WSW 7 13 4 7 1002.6 1002.5 0.0
04/04:00pm 30.0 34.8 25.1 75 3.4 NW 9 15 5 8 1002.4 1002.3 0.0
04/03:30pm 31.4 36.4 24.5 67 4.8 NNW 6 11 3 6 1002.7 1002.6 0.0
04/03:00pm 31.5 36.1 24.1 65 5.2 NNW 7 9 4 5 1003.0 1002.9 0.0
04/02:30pm 31.7 36.7 23.8 63 5.5 NNW 4 9 2 5 1003.4 1003.3 0.0
04/02:00pm 31.4 36.8 25.5 71 4.2 NNW 7 11 4 6 1003.8 1003.7 0.0
04/01:30pm 31.0 36.8 25.8 74 3.7 NNW 6 9 3 5 1004.3 1004.2 0.0
04/01:00pm 31.4 37.1 25.0 69 4.5 SSE 4 7 2 4 1004.8 1004.7 0.0
04/12:30pm 30.4 35.4 24.5 70 4.1 WSW 6 9 3 5 1005.4 1005.3 0.0
04/12:00pm 29.9 36.1 25.2 76 3.3 SW 2 7 1 4 1005.8 1005.7 0.0
04/11:30am 29.3 35.3 24.8 77 3.2 NE 2 6 1 3 1006.3 1006.2 0.0
04/11:00am 28.4 34.4 24.8 81 2.5 ENE 2 6 1 3 1006.6 1006.5 0.0
04/10:30am 26.7 32.1 24.5 88 1.5 E 4 6 2 3 1007.0 1006.9 0.0
04/10:00am 25.4 30.5 24.0 92 1.0 E 4 6 2 3 1006.9 1006.8 0.0
04/09:30am 24.6 28.9 23.7 95 0.6 E 7 9 4 5 1006.8 1006.7 0.0
04/09:00am 24.1 28.3 23.4 96 0.5 ESE 7 11 4 6 1006.5 1006.4 22.2
04/08:30am 24.4 29.3 23.7 96 0.5 E 4 6 2 3 1006.5 1006.4 22.2
04/08:00am 23.8 28.4 23.1 96 0.5 ESE 4 6 2 3 1006.7 1006.6 22.2
04/07:30am 23.6 28.2 23.1 97 0.3 NW 4 7 2 4 1006.8 1006.7 21.6
04/07:00am 23.8 26.9 22.8 94 0.7 WNW 11 17 6 9 1006.5 1006.4 15.0
04/06:30am 24.3 28.3 23.8 97 0.3 NW 9 15 5 8 1006.0 1005.9 8.0
04/06:00am 24.7 29.6 23.7 94 0.7 E 4 7 2 4 1005.5 1005.4 3.8
04/05:30am 25.4 29.7 23.6 90 1.2 ESE 7 9 4 5 1005.0 1004.9 0.6
04/05:00am 25.7 30.3 24.1 91 1.1 ENE 7 11 4 6 1004.8 1004.7 0.6
04/04:30am 25.6 29.6 23.1 86 1.7 ENE 7 7 4 4 1004.6 1004.5 0.6
04/04:00am 25.7 29.9 23.2 86 1.7 E 6 7 3 4 1004.4 1004.3 0.6
04/03:30am 25.8 29.9 22.9 84 2.0 SSE 6 9 3 5 1004.4 1004.3 0.6
04/03:00am 26.5 32.9 24.9 91 1.1 CALM 0 0 0 0 1004.5 1004.4 0.6
04/02:30am 26.4 32.2 25.2 93 0.8 SSE 4 6 2 3 1004.6 1004.5 0.6
04/02:00am 26.1 32.6 25.1 94 0.7 CALM 0 0 0 0 1004.3 1004.2 0.6
04/01:30am 26.2 32.5 24.8 92 1.0 CALM 0 0 0 0 1004.8 1004.7 0.6
04/01:00am 26.5 31.9 24.5 89 1.4 NW 4 6 2 3 1005.1 1005.0 0.6
04/12:30am 26.3 32.3 24.3 89 1.4 CALM 0 0 0 0 1005.4 1005.3 0.6
04/12:00am 26.4 31.5 24.1 87 1.6 NNE 4 6 2 3 1005.7 1005.6 0.6
 
Date/Time
CST
Temp
°C
App
Temp
°C
Dew
Point
°C
Rel
Hum
%
Delta-T
°C
Wind Press
QNH
hPa
Press
MSL
hPa
Rain since
9am
mm
Dir  Spd
km/h
Gust
km/h
Spd
kts
Gust
kts
03/11:30pm 26.9 31.9 24.5 87 1.7 NNE 6 9 3 5 1006.1 1006.0 0.6
03/11:00pm 26.7 32.8 24.4 87 1.6 CALM 0 0 0 0 1006.0 1005.9 0.6
03/10:30pm 26.4 32.5 24.4 89 1.4 CALM 0 0 0 0 1005.9 1005.8 0.6
03/10:00pm 26.6 32.5 24.1 86 1.7 CALM 0 0 0 0 1005.6 1005.5 0.6
03/09:30pm 26.8 32.1 23.7 83 2.1 NW 2 4 1 2 1005.1 1005.0 0.6
03/09:00pm 27.2 31.5 23.7 81 2.4 WNW 7 11 4 6 1004.6 1004.5 0.6
03/08:30pm 27.4 32.5 24.7 85 1.9 WNW 6 11 3 6 1004.5 1004.4 0.6
03/08:00pm 27.9 32.2 24.3 81 2.5 WNW 9 15 5 8 1003.8 1003.7 0.6
03/07:30pm 28.9 34.4 26.1 85 2.0 NW 9 17 5 9 1003.1 1003.0 0.6
03/07:00pm 29.4 34.7 26.4 84 2.1 NW 11 19 6 10 1003.1 1003.0 0.6
03/06:30pm 30.4 36.0 25.5 75 3.5 NW 6 7 3 4 1002.6 1002.5 0.6
03/06:00pm 30.9 36.3 24.5 68 4.5 WNW 4 7 2 4 1002.2 1002.1 0.6
03/05:30pm 31.0 36.3 24.9 70 4.3 WNW 6 7 3 4 1001.8 1001.7 0.6
03/05:00pm 31.1 36.5 25.2 71 4.2 WNW 6 9 3 5 1002.0 1001.9 0.6
03/04:30pm 31.4 36.7 25.0 69 4.5 W 6 9 3 5 1001.9 1001.8 0.6
03/04:00pm 31.4 35.8 23.5 63 5.5 WSW 6 15 3 8 1001.8 1001.7 0.6
03/03:30pm 31.5 35.4 23.6 63 5.5 WSW 9 15 5 8 1002.0 1001.9 0.6
03/03:00pm 31.9 37.0 25.0 67 4.9 SW 7 15 4 8 1001.9 1001.8 0.6
03/02:30pm 31.1 35.4 24.2 66 4.8 SW 9 17 5 9 1002.2 1002.1 0.6
03/02:00pm 30.6 35.9 25.0 72 3.9 SW 6 13 3 7 1002.3 1002.2 0.6
03/01:30pm 29.9 35.2 25.2 76 3.3 WSW 7 13 4 7 1002.8 1002.7 0.6
03/01:00pm 29.8 35.0 25.1 76 3.3 SW 7 11 4 6 1003.2 1003.1 0.6
03/12:30pm 29.6 34.7 24.7 75 3.4 WSW 6 9 3 5 1003.5 1003.4 0.6
03/12:00pm 29.4 35.1 23.8 72 3.9 CALM 0 4 0 2 1003.9 1003.8 0.6
03/11:30am 28.5 33.0 23.6 75 3.4 SSE 6 9 3 5 1004.2 1004.1 0.6
03/11:00am 28.4 33.2 23.5 75 3.4 ESE 4 7 2 4 1004.6 1004.5 0.4
03/10:30am 27.8 32.4 24.2 81 2.5 S 7 13 4 7 1004.9 1004.8 0.4
03/10:00am 26.1 30.3 24.1 89 1.4 S 9 17 5 9 1005.2 1005.1 0.4

Other formats

Comma delimited format used in spreadsheet applications
http://www.bom.gov.au/fwo/IDD60801/IDD60801.94110.axf

JavaScript Object Notation format (JSON) in row-major order
http://www.bom.gov.au/fwo/IDD60801/IDD60801.94110.json

Data quality

Most of these data are generated automatically and are frequently updated. Quality checks on data are not normally performed. It is possible for incorrect values to appear. Refer to information at About Latest Weather Observations and please check the disclaimer before using these data.